sensor_id;sensor_type;location;lat;lon;timestamp;P1;durP1;ratioP1;P2;durP2;ratioP2
4049;SDS011;2039;50.894;6.888;2024-02-04T00:00:30;15.50;;;3.10;;
4049;SDS011;2039;50.894;6.888;2024-02-04T00:02:55;17.07;;;3.60;;
4049;SDS011;2039;50.894;6.888;2024-02-04T00:05:21;16.40;;;3.73;;
4049;SDS011;2039;50.894;6.888;2024-02-04T00:07:47;16.90;;;3.40;;
4049;SDS011;2039;50.894;6.888;2024-02-04T00:10:12;17.00;;;4.00;;
4049;SDS011;2039;50.894;6.888;2024-02-04T00:12:40;15.75;;;3.38;;
4049;SDS011;2039;50.894;6.888;2024-02-04T00:15:06;19.10;;;3.10;;
4049;SDS011;2039;50.894;6.888;2024-02-04T00:17:33;17.85;;;4.18;;
4049;SDS011;2039;50.894;6.888;2024-02-04T00:20:02;16.35;;;4.00;;
4049;SDS011;2039;50.894;6.888;2024-02-04T00:22:30;16.05;;;3.13;;
4049;SDS011;2039;50.894;6.888;2024-02-04T00:25:00;19.75;;;3.03;;
4049;SDS011;2039;50.894;6.888;2024-02-04T00:27:32;14.63;;;2.45;;
4049;SDS011;2039;50.894;6.888;2024-02-04T00:29:58;16.48;;;2.65;;
4049;SDS011;2039;50.894;6.888;2024-02-04T00:32:24;15.30;;;2.73;;
4049;SDS011;2039;50.894;6.888;2024-02-04T00:34:50;14.80;;;2.10;;
4049;SDS011;2039;50.894;6.888;2024-02-04T00:37:17;16.10;;;2.33;;
4049;SDS011;2039;50.894;6.888;2024-02-04T00:39:42;14.87;;;1.83;;
4049;SDS011;2039;50.894;6.888;2024-02-04T00:42:08;14.50;;;2.03;;
4049;SDS011;2039;50.894;6.888;2024-02-04T00:44:33;14.53;;;1.67;;
4049;SDS011;2039;50.894;6.888;2024-02-04T00:46:59;14.40;;;1.60;;
4049;SDS011;2039;50.894;6.888;2024-02-04T00:49:25;14.10;;;1.57;;
4049;SDS011;2039;50.894;6.888;2024-02-04T00:51:52;13.80;;;1.38;;
4049;SDS011;2039;50.894;6.888;2024-02-04T00:54:17;14.00;;;1.47;;
4049;SDS011;2039;50.894;6.888;2024-02-04T00:56:46;13.87;;;1.33;;
4049;SDS011;2039;50.894;6.888;2024-02-04T00:59:12;13.80;;;0.88;;
4049;SDS011;2039;50.894;6.888;2024-02-04T01:01:38;13.80;;;1.10;;
4049;SDS011;2039;50.894;6.888;2024-02-04T01:04:03;14.00;;;1.10;;
4049;SDS011;2039;50.894;6.888;2024-02-04T01:06:29;13.57;;;0.93;;
4049;SDS011;2039;50.894;6.888;2024-02-04T01:08:58;13.60;;;1.10;;
4049;SDS011;2039;50.894;6.888;2024-02-04T01:11:23;13.45;;;0.90;;
4049;SDS011;2039;50.894;6.888;2024-02-04T01:13:49;14.63;;;0.90;;
4049;SDS011;2039;50.894;6.888;2024-02-04T01:16:15;13.80;;;1.10;;
4049;SDS011;2039;50.894;6.888;2024-02-04T01:18:41;15.80;;;0.90;;
4049;SDS011;2039;50.894;6.888;2024-02-04T01:21:06;14.40;;;0.93;;
4049;SDS011;2039;50.894;6.888;2024-02-04T01:23:34;13.90;;;0.90;;
4049;SDS011;2039;50.894;6.888;2024-02-04T01:25:59;13.30;;;0.70;;
4049;SDS011;2039;50.894;6.888;2024-02-04T01:28:25;13.53;;;0.70;;
4049;SDS011;2039;50.894;6.888;2024-02-04T01:30:51;13.37;;;0.70;;
4049;SDS011;2039;50.894;6.888;2024-02-04T01:33:16;14.10;;;1.00;;
4049;SDS011;2039;50.894;6.888;2024-02-04T01:35:42;13.17;;;0.80;;
4049;SDS011;2039;50.894;6.888;2024-02-04T01:38:08;13.27;;;0.80;;
4049;SDS011;2039;50.894;6.888;2024-02-04T01:40:33;13.70;;;1.10;;
4049;SDS011;2039;50.894;6.888;2024-02-04T01:42:59;13.43;;;0.90;;
4049;SDS011;2039;50.894;6.888;2024-02-04T01:45:25;13.60;;;0.80;;
4049;SDS011;2039;50.894;6.888;2024-02-04T01:47:50;13.50;;;0.90;;
4049;SDS011;2039;50.894;6.888;2024-02-04T01:50:16;13.37;;;0.70;;
4049;SDS011;2039;50.894;6.888;2024-02-04T01:52:42;14.10;;;0.80;;
4049;SDS011;2039;50.894;6.888;2024-02-04T01:55:09;13.32;;;0.80;;
4049;SDS011;2039;50.894;6.888;2024-02-04T01:57:35;13.55;;;0.90;;
4049;SDS011;2039;50.894;6.888;2024-02-04T02:00:02;13.33;;;0.80;;
4049;SDS011;2039;50.894;6.888;2024-02-04T02:02:29;13.57;;;1.00;;
4049;SDS011;2039;50.894;6.888;2024-02-04T02:04:56;13.73;;;0.90;;
4049;SDS011;2039;50.894;6.888;2024-02-04T02:07:22;14.30;;;0.88;;
4049;SDS011;2039;50.894;6.888;2024-02-04T02:09:52;13.73;;;1.00;;
4049;SDS011;2039;50.894;6.888;2024-02-04T02:12:29;13.27;;;0.93;;
4049;SDS011;2039;50.894;6.888;2024-02-04T02:15:14;13.82;;;1.20;;
4049;SDS011;2039;50.894;6.888;2024-02-04T02:17:54;13.68;;;1.15;;
4049;SDS011;2039;50.894;6.888;2024-02-04T02:23:14;14.45;;;1.48;;
4049;SDS011;2039;50.894;6.888;2024-02-04T02:25:42;14.32;;;1.15;;
4049;SDS011;2039;50.894;6.888;2024-02-04T02:28:10;13.90;;;1.35;;
4049;SDS011;2039;50.894;6.888;2024-02-04T02:30:37;13.40;;;1.17;;
4049;SDS011;2039;50.894;6.888;2024-02-04T02:33:02;13.93;;;1.30;;
4049;SDS011;2039;50.894;6.888;2024-02-04T02:35:31;14.02;;;1.50;;
4049;SDS011;2039;50.894;6.888;2024-02-04T02:40:45;14.05;;;1.25;;
4049;SDS011;2039;50.894;6.888;2024-02-04T02:43:16;14.65;;;1.85;;
4049;SDS011;2039;50.894;6.888;2024-02-04T02:45:42;13.98;;;1.50;;
4049;SDS011;2039;50.894;6.888;2024-02-04T02:48:10;14.52;;;1.42;;
4049;SDS011;2039;50.894;6.888;2024-02-04T02:50:37;14.95;;;1.67;;
4049;SDS011;2039;50.894;6.888;2024-02-04T02:53:03;17.65;;;2.20;;
4049;SDS011;2039;50.894;6.888;2024-02-04T02:55:29;14.20;;;1.52;;
4049;SDS011;2039;50.894;6.888;2024-02-04T02:57:55;13.67;;;1.23;;
4049;SDS011;2039;50.894;6.888;2024-02-04T03:00:20;14.57;;;1.67;;
4049;SDS011;2039;50.894;6.888;2024-02-04T03:02:46;14.47;;;1.30;;
4049;SDS011;2039;50.894;6.888;2024-02-04T03:05:12;15.10;;;2.00;;
4049;SDS011;2039;50.894;6.888;2024-02-04T03:07:40;14.88;;;1.75;;
4049;SDS011;2039;50.894;6.888;2024-02-04T03:10:06;14.43;;;1.70;;
4049;SDS011;2039;50.894;6.888;2024-02-04T03:12:31;14.27;;;1.70;;
4049;SDS011;2039;50.894;6.888;2024-02-04T03:14:57;13.43;;;1.20;;
4049;SDS011;2039;50.894;6.888;2024-02-04T03:17:23;14.20;;;1.70;;
4049;SDS011;2039;50.894;6.888;2024-02-04T03:19:49;14.63;;;1.70;;
4049;SDS011;2039;50.894;6.888;2024-02-04T03:22:16;14.65;;;1.27;;
4049;SDS011;2039;50.894;6.888;2024-02-04T03:24:42;14.67;;;1.60;;
4049;SDS011;2039;50.894;6.888;2024-02-04T03:27:08;14.87;;;1.47;;
4049;SDS011;2039;50.894;6.888;2024-02-04T03:29:34;14.00;;;1.35;;
4049;SDS011;2039;50.894;6.888;2024-02-04T03:32:00;14.40;;;1.60;;
4049;SDS011;2039;50.894;6.888;2024-02-04T03:34:26;13.75;;;1.15;;
4049;SDS011;2039;50.894;6.888;2024-02-04T03:36:52;13.80;;;1.20;;
4049;SDS011;2039;50.894;6.888;2024-02-04T03:39:17;15.77;;;1.70;;
4049;SDS011;2039;50.894;6.888;2024-02-04T03:41:46;14.20;;;1.40;;
4049;SDS011;2039;50.894;6.888;2024-02-04T03:44:12;14.77;;;1.80;;
4049;SDS011;2039;50.894;6.888;2024-02-04T03:46:37;14.60;;;1.87;;
4049;SDS011;2039;50.894;6.888;2024-02-04T03:49:05;13.85;;;1.60;;
4049;SDS011;2039;50.894;6.888;2024-02-04T03:51:32;14.60;;;1.85;;
4049;SDS011;2039;50.894;6.888;2024-02-04T03:53:58;14.20;;;1.60;;
4049;SDS011;2039;50.894;6.888;2024-02-04T03:56:23;15.70;;;2.30;;
4049;SDS011;2039;50.894;6.888;2024-02-04T03:58:52;14.30;;;1.73;;
4049;SDS011;2039;50.894;6.888;2024-02-04T04:01:17;14.70;;;1.80;;
4049;SDS011;2039;50.894;6.888;2024-02-04T04:03:43;13.77;;;1.40;;
4049;SDS011;2039;50.894;6.888;2024-02-04T04:06:09;14.70;;;2.00;;
4049;SDS011;2039;50.894;6.888;2024-02-04T04:08:35;14.25;;;1.73;;
4049;SDS011;2039;50.894;6.888;2024-02-04T04:11:01;16.15;;;1.88;;
4049;SDS011;2039;50.894;6.888;2024-02-04T04:13:27;14.73;;;1.90;;
4049;SDS011;2039;50.894;6.888;2024-02-04T04:15:53;14.10;;;1.43;;
4049;SDS011;2039;50.894;6.888;2024-02-04T04:18:19;14.98;;;1.77;;
4049;SDS011;2039;50.894;6.888;2024-02-04T04:20:45;13.97;;;1.50;;
4049;SDS011;2039;50.894;6.888;2024-02-04T04:23:11;14.60;;;1.80;;
4049;SDS011;2039;50.894;6.888;2024-02-04T04:25:43;14.20;;;1.65;;
4049;SDS011;2039;50.894;6.888;2024-02-04T04:28:09;14.00;;;1.70;;
4049;SDS011;2039;50.894;6.888;2024-02-04T04:30:38;15.52;;;2.03;;
4049;SDS011;2039;50.894;6.888;2024-02-04T04:33:04;14.07;;;1.60;;
4049;SDS011;2039;50.894;6.888;2024-02-04T04:35:29;13.60;;;1.40;;
4049;SDS011;2039;50.894;6.888;2024-02-04T04:37:55;14.50;;;1.60;;
4049;SDS011;2039;50.894;6.888;2024-02-04T04:40:21;14.20;;;1.73;;
4049;SDS011;2039;50.894;6.888;2024-02-04T04:42:46;14.23;;;1.80;;
4049;SDS011;2039;50.894;6.888;2024-02-04T04:45:12;14.90;;;1.80;;
4049;SDS011;2039;50.894;6.888;2024-02-04T04:47:39;15.23;;;1.70;;
4049;SDS011;2039;50.894;6.888;2024-02-04T04:50:04;14.57;;;2.23;;
4049;SDS011;2039;50.894;6.888;2024-02-04T04:52:31;14.60;;;2.38;;
4049;SDS011;2039;50.894;6.888;2024-02-04T04:54:56;14.80;;;1.73;;
4049;SDS011;2039;50.894;6.888;2024-02-04T04:57:22;14.47;;;2.40;;
4049;SDS011;2039;50.894;6.888;2024-02-04T04:59:48;16.70;;;2.73;;
4049;SDS011;2039;50.894;6.888;2024-02-04T05:02:14;15.00;;;2.10;;
4049;SDS011;2039;50.894;6.888;2024-02-04T05:04:42;17.80;;;3.07;;
4049;SDS011;2039;50.894;6.888;2024-02-04T05:07:09;19.30;;;2.90;;
4049;SDS011;2039;50.894;6.888;2024-02-04T05:09:35;14.90;;;2.20;;
4049;SDS011;2039;50.894;6.888;2024-02-04T05:12:02;16.43;;;2.93;;
4049;SDS011;2039;50.894;6.888;2024-02-04T05:14:28;14.75;;;2.22;;
4049;SDS011;2039;50.894;6.888;2024-02-04T05:16:53;15.37;;;2.77;;
4049;SDS011;2039;50.894;6.888;2024-02-04T05:19:19;16.10;;;2.23;;
4049;SDS011;2039;50.894;6.888;2024-02-04T05:21:45;15.70;;;2.63;;
4049;SDS011;2039;50.894;6.888;2024-02-04T05:24:10;15.00;;;2.50;;
4049;SDS011;2039;50.894;6.888;2024-02-04T05:26:36;15.60;;;2.60;;
4049;SDS011;2039;50.894;6.888;2024-02-04T05:29:02;14.30;;;1.90;;
4049;SDS011;2039;50.894;6.888;2024-02-04T05:31:27;14.57;;;2.17;;
4049;SDS011;2039;50.894;6.888;2024-02-04T05:33:53;15.37;;;2.30;;
4049;SDS011;2039;50.894;6.888;2024-02-04T05:36:19;14.70;;;2.17;;
4049;SDS011;2039;50.894;6.888;2024-02-04T05:38:45;14.70;;;2.13;;
4049;SDS011;2039;50.894;6.888;2024-02-04T05:41:11;14.35;;;1.73;;
4049;SDS011;2039;50.894;6.888;2024-02-04T05:43:37;14.47;;;2.20;;
4049;SDS011;2039;50.894;6.888;2024-02-04T05:46:03;14.93;;;1.77;;
4049;SDS011;2039;50.894;6.888;2024-02-04T05:48:29;16.00;;;2.03;;
4049;SDS011;2039;50.894;6.888;2024-02-04T05:50:55;16.10;;;2.47;;
4049;SDS011;2039;50.894;6.888;2024-02-04T05:53:20;15.87;;;2.33;;
4049;SDS011;2039;50.894;6.888;2024-02-04T05:55:46;14.53;;;1.80;;
4049;SDS011;2039;50.894;6.888;2024-02-04T05:58:12;15.27;;;2.20;;
4049;SDS011;2039;50.894;6.888;2024-02-04T06:00:39;15.90;;;2.20;;
4049;SDS011;2039;50.894;6.888;2024-02-04T06:03:05;15.00;;;2.08;;
4049;SDS011;2039;50.894;6.888;2024-02-04T06:05:31;14.57;;;1.92;;
4049;SDS011;2039;50.894;6.888;2024-02-04T06:07:57;16.03;;;2.40;;
4049;SDS011;2039;50.894;6.888;2024-02-04T06:10:23;15.90;;;2.50;;
4049;SDS011;2039;50.894;6.888;2024-02-04T06:12:48;14.70;;;2.33;;
4049;SDS011;2039;50.894;6.888;2024-02-04T06:15:14;14.57;;;2.20;;
4049;SDS011;2039;50.894;6.888;2024-02-04T06:17:41;19.38;;;2.30;;
4049;SDS011;2039;50.894;6.888;2024-02-04T06:20:07;16.17;;;3.25;;
4049;SDS011;2039;50.894;6.888;2024-02-04T06:22:34;16.00;;;2.83;;
4049;SDS011;2039;50.894;6.888;2024-02-04T06:25:00;15.45;;;2.30;;
4049;SDS011;2039;50.894;6.888;2024-02-04T06:27:26;15.68;;;2.55;;
4049;SDS011;2039;50.894;6.888;2024-02-04T06:29:52;17.83;;;3.20;;
4049;SDS011;2039;50.894;6.888;2024-02-04T06:32:17;15.47;;;3.13;;
4049;SDS011;2039;50.894;6.888;2024-02-04T06:34:46;16.83;;;3.85;;
4049;SDS011;2039;50.894;6.888;2024-02-04T06:37:12;16.77;;;2.80;;
4049;SDS011;2039;50.894;6.888;2024-02-04T06:39:37;15.93;;;2.80;;
4049;SDS011;2039;50.894;6.888;2024-02-04T06:42:03;14.98;;;2.45;;
4049;SDS011;2039;50.894;6.888;2024-02-04T06:44:29;16.47;;;2.80;;
4049;SDS011;2039;50.894;6.888;2024-02-04T06:46:55;15.17;;;2.10;;
4049;SDS011;2039;50.894;6.888;2024-02-04T06:49:20;14.77;;;2.33;;
4049;SDS011;2039;50.894;6.888;2024-02-04T06:51:46;15.23;;;2.10;;
4049;SDS011;2039;50.894;6.888;2024-02-04T06:54:12;17.00;;;2.45;;
4049;SDS011;2039;50.894;6.888;2024-02-04T06:56:39;15.50;;;1.80;;
4049;SDS011;2039;50.894;6.888;2024-02-04T06:59:05;15.18;;;1.88;;
4049;SDS011;2039;50.894;6.888;2024-02-04T07:01:30;15.03;;;1.90;;
4049;SDS011;2039;50.894;6.888;2024-02-04T07:03:56;14.90;;;1.38;;
4049;SDS011;2039;50.894;6.888;2024-02-04T07:06:22;13.93;;;1.33;;
4049;SDS011;2039;50.894;6.888;2024-02-04T07:08:48;14.20;;;1.67;;
4049;SDS011;2039;50.894;6.888;2024-02-04T07:11:13;15.57;;;1.47;;
4049;SDS011;2039;50.894;6.888;2024-02-04T07:13:39;14.10;;;1.50;;
4049;SDS011;2039;50.894;6.888;2024-02-04T07:16:05;13.87;;;1.27;;
4049;SDS011;2039;50.894;6.888;2024-02-04T07:18:30;14.70;;;1.83;;
4049;SDS011;2039;50.894;6.888;2024-02-04T07:20:56;15.00;;;1.50;;
4049;SDS011;2039;50.894;6.888;2024-02-04T07:23:22;14.00;;;1.43;;
4049;SDS011;2039;50.894;6.888;2024-02-04T07:25:47;13.77;;;1.30;;
4049;SDS011;2039;50.894;6.888;2024-02-04T07:28:13;15.20;;;1.37;;
4049;SDS011;2039;50.894;6.888;2024-02-04T07:30:39;14.60;;;1.40;;
4049;SDS011;2039;50.894;6.888;2024-02-04T07:33:05;13.93;;;1.30;;
4049;SDS011;2039;50.894;6.888;2024-02-04T07:35:31;14.13;;;1.73;;
4049;SDS011;2039;50.894;6.888;2024-02-04T07:37:57;13.77;;;1.25;;
4049;SDS011;2039;50.894;6.888;2024-02-04T07:40:22;14.03;;;1.53;;
4049;SDS011;2039;50.894;6.888;2024-02-04T07:42:48;14.90;;;1.60;;
4049;SDS011;2039;50.894;6.888;2024-02-04T07:45:14;13.73;;;1.20;;
4049;SDS011;2039;50.894;6.888;2024-02-04T07:47:40;13.60;;;1.23;;
4049;SDS011;2039;50.894;6.888;2024-02-04T07:50:06;13.55;;;1.27;;
4049;SDS011;2039;50.894;6.888;2024-02-04T07:52:32;13.55;;;1.00;;
4049;SDS011;2039;50.894;6.888;2024-02-04T07:54:58;13.37;;;1.07;;
4049;SDS011;2039;50.894;6.888;2024-02-04T07:57:23;13.97;;;1.30;;
4049;SDS011;2039;50.894;6.888;2024-02-04T07:59:49;13.67;;;1.20;;
4049;SDS011;2039;50.894;6.888;2024-02-04T08:02:15;13.80;;;1.40;;
4049;SDS011;2039;50.894;6.888;2024-02-04T08:04:41;13.83;;;1.10;;
4049;SDS011;2039;50.894;6.888;2024-02-04T08:07:07;13.73;;;1.30;;
4049;SDS011;2039;50.894;6.888;2024-02-04T08:09:32;13.37;;;0.97;;
4049;SDS011;2039;50.894;6.888;2024-02-04T08:11:58;13.73;;;1.00;;
4049;SDS011;2039;50.894;6.888;2024-02-04T08:14:24;13.90;;;1.10;;
4049;SDS011;2039;50.894;6.888;2024-02-04T08:16:49;13.60;;;1.20;;
4049;SDS011;2039;50.894;6.888;2024-02-04T08:19:15;13.60;;;1.20;;
4049;SDS011;2039;50.894;6.888;2024-02-04T08:21:41;13.85;;;1.15;;
4049;SDS011;2039;50.894;6.888;2024-02-04T08:24:07;13.60;;;0.97;;
4049;SDS011;2039;50.894;6.888;2024-02-04T08:26:32;14.67;;;1.37;;
4049;SDS011;2039;50.894;6.888;2024-02-04T08:28:59;15.17;;;1.67;;
4049;SDS011;2039;50.894;6.888;2024-02-04T08:31:24;14.30;;;1.20;;
4049;SDS011;2039;50.894;6.888;2024-02-04T08:33:51;15.65;;;1.83;;
4049;SDS011;2039;50.894;6.888;2024-02-04T08:36:18;13.65;;;1.15;;
4049;SDS011;2039;50.894;6.888;2024-02-04T08:38:43;13.85;;;1.13;;
4049;SDS011;2039;50.894;6.888;2024-02-04T08:41:09;14.03;;;1.77;;
4049;SDS011;2039;50.894;6.888;2024-02-04T08:43:35;14.40;;;1.50;;
4049;SDS011;2039;50.894;6.888;2024-02-04T08:46:01;14.93;;;1.70;;
4049;SDS011;2039;50.894;6.888;2024-02-04T08:48:27;14.85;;;1.40;;
4049;SDS011;2039;50.894;6.888;2024-02-04T08:50:53;14.70;;;1.37;;
4049;SDS011;2039;50.894;6.888;2024-02-04T08:53:21;14.23;;;1.60;;
4049;SDS011;2039;50.894;6.888;2024-02-04T08:55:48;14.70;;;1.60;;
4049;SDS011;2039;50.894;6.888;2024-02-04T08:58:14;13.70;;;1.20;;
4049;SDS011;2039;50.894;6.888;2024-02-04T09:00:40;14.10;;;1.70;;
4049;SDS011;2039;50.894;6.888;2024-02-04T09:03:05;13.83;;;1.27;;
4049;SDS011;2039;50.894;6.888;2024-02-04T09:05:31;14.40;;;1.40;;
4049;SDS011;2039;50.894;6.888;2024-02-04T09:07:57;14.03;;;1.40;;
4049;SDS011;2039;50.894;6.888;2024-02-04T09:10:23;14.20;;;1.30;;
4049;SDS011;2039;50.894;6.888;2024-02-04T09:12:48;13.60;;;1.23;;
4049;SDS011;2039;50.894;6.888;2024-02-04T09:15:14;14.67;;;1.30;;
4049;SDS011;2039;50.894;6.888;2024-02-04T09:17:40;14.93;;;1.47;;
4049;SDS011;2039;50.894;6.888;2024-02-04T09:20:05;13.73;;;1.20;;
4049;SDS011;2039;50.894;6.888;2024-02-04T09:22:32;14.00;;;1.23;;
4049;SDS011;2039;50.894;6.888;2024-02-04T09:24:58;13.47;;;1.10;;
4049;SDS011;2039;50.894;6.888;2024-02-04T09:27:24;13.70;;;1.47;;
4049;SDS011;2039;50.894;6.888;2024-02-04T09:29:50;14.15;;;1.55;;
4049;SDS011;2039;50.894;6.888;2024-02-04T09:32:16;14.02;;;1.25;;
4049;SDS011;2039;50.894;6.888;2024-02-04T09:34:42;13.67;;;1.00;;
4049;SDS011;2039;50.894;6.888;2024-02-04T09:37:08;15.55;;;1.63;;
4049;SDS011;2039;50.894;6.888;2024-02-04T09:39:34;13.83;;;1.27;;
4049;SDS011;2039;50.894;6.888;2024-02-04T09:41:59;14.77;;;1.43;;
4049;SDS011;2039;50.894;6.888;2024-02-04T09:44:26;13.68;;;1.33;;
4049;SDS011;2039;50.894;6.888;2024-02-04T09:46:52;13.60;;;1.17;;
4049;SDS011;2039;50.894;6.888;2024-02-04T09:49:18;13.73;;;1.20;;
4049;SDS011;2039;50.894;6.888;2024-02-04T09:51:46;13.95;;;1.30;;
4049;SDS011;2039;50.894;6.888;2024-02-04T09:54:12;14.30;;;1.50;;
4049;SDS011;2039;50.894;6.888;2024-02-04T09:56:41;14.52;;;1.42;;
4049;SDS011;2039;50.894;6.888;2024-02-04T09:59:07;14.25;;;1.48;;
4049;SDS011;2039;50.894;6.888;2024-02-04T10:01:33;14.23;;;1.23;;
4049;SDS011;2039;50.894;6.888;2024-02-04T10:04:00;14.82;;;1.63;;
4049;SDS011;2039;50.894;6.888;2024-02-04T10:06:25;15.73;;;1.47;;
4049;SDS011;2039;50.894;6.888;2024-02-04T10:08:51;15.40;;;1.20;;
4049;SDS011;2039;50.894;6.888;2024-02-04T10:11:17;14.20;;;1.47;;
4049;SDS011;2039;50.894;6.888;2024-02-04T10:13:46;13.80;;;1.37;;
4049;SDS011;2039;50.894;6.888;2024-02-04T10:16:13;13.73;;;1.50;;
4049;SDS011;2039;50.894;6.888;2024-02-04T10:18:46;13.55;;;1.10;;
4049;SDS011;2039;50.894;6.888;2024-02-04T10:21:20;13.60;;;1.17;;
4049;SDS011;2039;50.894;6.888;2024-02-04T10:23:48;13.80;;;1.15;;
4049;SDS011;2039;50.894;6.888;2024-02-04T10:26:15;13.45;;;1.10;;
4049;SDS011;2039;50.894;6.888;2024-02-04T10:28:42;14.00;;;1.52;;
4049;SDS011;2039;50.894;6.888;2024-02-04T10:31:09;14.80;;;1.40;;
4049;SDS011;2039;50.894;6.888;2024-02-04T10:33:36;13.50;;;1.17;;
4049;SDS011;2039;50.894;6.888;2024-02-04T10:36:02;15.77;;;1.55;;
4049;SDS011;2039;50.894;6.888;2024-02-04T10:38:28;14.45;;;1.70;;
4049;SDS011;2039;50.894;6.888;2024-02-04T10:40:54;14.57;;;1.90;;
4049;SDS011;2039;50.894;6.888;2024-02-04T10:43:20;16.63;;;1.30;;
4049;SDS011;2039;50.894;6.888;2024-02-04T10:45:47;13.75;;;1.30;;
4049;SDS011;2039;50.894;6.888;2024-02-04T10:48:19;14.82;;;1.40;;
4049;SDS011;2039;50.894;6.888;2024-02-04T10:50:47;14.07;;;1.27;;
4049;SDS011;2039;50.894;6.888;2024-02-04T10:53:16;13.45;;;1.10;;
4049;SDS011;2039;50.894;6.888;2024-02-04T10:55:46;14.50;;;1.40;;
4049;SDS011;2039;50.894;6.888;2024-02-04T10:58:14;13.65;;;1.20;;
4049;SDS011;2039;50.894;6.888;2024-02-04T11:00:41;13.70;;;1.38;;
4049;SDS011;2039;50.894;6.888;2024-02-04T11:03:08;13.77;;;1.15;;
4049;SDS011;2039;50.894;6.888;2024-02-04T11:05:35;13.57;;;1.00;;
4049;SDS011;2039;50.894;6.888;2024-02-04T11:08:04;16.20;;;1.10;;
4049;SDS011;2039;50.894;6.888;2024-02-04T11:10:30;13.80;;;1.10;;
4049;SDS011;2039;50.894;6.888;2024-02-04T11:12:57;13.25;;;0.90;;
4049;SDS011;2039;50.894;6.888;2024-02-04T11:15:26;13.77;;;1.20;;
4049;SDS011;2039;50.894;6.888;2024-02-04T11:23:22;14.10;;;1.30;;
4049;SDS011;2039;50.894;6.888;2024-02-04T11:25:54;13.45;;;0.90;;
4049;SDS011;2039;50.894;6.888;2024-02-04T11:28:22;13.57;;;1.00;;
4049;SDS011;2039;50.894;6.888;2024-02-04T11:30:48;13.65;;;1.30;;
4049;SDS011;2039;50.894;6.888;2024-02-04T11:33:18;13.25;;;1.10;;
4049;SDS011;2039;50.894;6.888;2024-02-04T11:35:46;13.38;;;1.10;;
4049;SDS011;2039;50.894;6.888;2024-02-04T11:38:16;13.70;;;1.35;;
4049;SDS011;2039;50.894;6.888;2024-02-04T11:40:43;13.25;;;1.15;;
4049;SDS011;2039;50.894;6.888;2024-02-04T11:43:10;13.82;;;1.30;;
4049;SDS011;2039;50.894;6.888;2024-02-04T11:45:37;14.30;;;1.17;;
4049;SDS011;2039;50.894;6.888;2024-02-04T11:48:06;13.88;;;1.70;;
4049;SDS011;2039;50.894;6.888;2024-02-04T11:50:32;13.43;;;1.20;;
4049;SDS011;2039;50.894;6.888;2024-02-04T11:53:09;13.90;;;1.20;;
4049;SDS011;2039;50.894;6.888;2024-02-04T11:55:38;16.85;;;1.83;;
4049;SDS011;2039;50.894;6.888;2024-02-04T11:58:05;13.63;;;1.10;;
4049;SDS011;2039;50.894;6.888;2024-02-04T12:00:35;13.63;;;1.10;;
4049;SDS011;2039;50.894;6.888;2024-02-04T12:03:01;13.48;;;1.40;;
4049;SDS011;2039;50.894;6.888;2024-02-04T12:05:28;13.80;;;1.23;;
4049;SDS011;2039;50.894;6.888;2024-02-04T12:07:57;14.07;;;1.13;;
4049;SDS011;2039;50.894;6.888;2024-02-04T12:10:23;14.38;;;1.45;;
4049;SDS011;2039;50.894;6.888;2024-02-04T12:12:52;13.23;;;1.23;;
4049;SDS011;2039;50.894;6.888;2024-02-04T12:15:17;14.70;;;1.40;;
4049;SDS011;2039;50.894;6.888;2024-02-04T12:17:43;13.77;;;1.50;;
4049;SDS011;2039;50.894;6.888;2024-02-04T12:20:09;13.83;;;1.47;;
4049;SDS011;2039;50.894;6.888;2024-02-04T12:22:35;14.27;;;1.80;;
4049;SDS011;2039;50.894;6.888;2024-02-04T12:25:02;14.10;;;1.60;;
4049;SDS011;2039;50.894;6.888;2024-02-04T12:27:28;13.65;;;1.55;;
4049;SDS011;2039;50.894;6.888;2024-02-04T12:29:54;16.00;;;1.53;;
4049;SDS011;2039;50.894;6.888;2024-02-04T12:32:20;14.02;;;1.38;;
4049;SDS011;2039;50.894;6.888;2024-02-04T12:34:49;13.90;;;1.40;;
4049;SDS011;2039;50.894;6.888;2024-02-04T12:37:19;13.65;;;1.25;;
4049;SDS011;2039;50.894;6.888;2024-02-04T12:39:45;15.50;;;1.03;;
4049;SDS011;2039;50.894;6.888;2024-02-04T12:42:14;13.70;;;1.15;;
4049;SDS011;2039;50.894;6.888;2024-02-04T12:44:44;13.70;;;1.10;;
4049;SDS011;2039;50.894;6.888;2024-02-04T12:47:10;13.38;;;1.00;;
4049;SDS011;2039;50.894;6.888;2024-02-04T12:49:36;14.30;;;1.60;;
4049;SDS011;2039;50.894;6.888;2024-02-04T12:52:05;13.80;;;1.20;;
4049;SDS011;2039;50.894;6.888;2024-02-04T12:54:39;13.32;;;1.10;;
4049;SDS011;2039;50.894;6.888;2024-02-04T12:57:07;13.80;;;1.20;;
4049;SDS011;2039;50.894;6.888;2024-02-04T12:59:36;13.30;;;0.95;;
4049;SDS011;2039;50.894;6.888;2024-02-04T13:02:02;14.63;;;1.57;;
4049;SDS011;2039;50.894;6.888;2024-02-04T13:04:37;13.38;;;1.10;;
4049;SDS011;2039;50.894;6.888;2024-02-04T13:07:11;13.55;;;1.35;;
4049;SDS011;2039;50.894;6.888;2024-02-04T13:09:39;14.00;;;1.30;;
4049;SDS011;2039;50.894;6.888;2024-02-04T13:12:05;13.80;;;1.45;;
4049;SDS011;2039;50.894;6.888;2024-02-04T13:14:35;13.95;;;1.95;;
4049;SDS011;2039;50.894;6.888;2024-02-04T13:17:04;13.65;;;1.45;;
4049;SDS011;2039;50.894;6.888;2024-02-04T13:19:37;13.43;;;1.25;;
4049;SDS011;2039;50.894;6.888;2024-02-04T13:22:06;13.45;;;1.17;;
4049;SDS011;2039;50.894;6.888;2024-02-04T13:24:35;13.98;;;1.30;;
4049;SDS011;2039;50.894;6.888;2024-02-04T13:27:01;14.70;;;1.58;;
4049;SDS011;2039;50.894;6.888;2024-02-04T13:29:28;14.65;;;2.33;;
4049;SDS011;2039;50.894;6.888;2024-02-04T13:31:54;14.67;;;1.93;;
4049;SDS011;2039;50.894;6.888;2024-02-04T13:34:20;13.82;;;1.45;;
4049;SDS011;2039;50.894;6.888;2024-02-04T13:36:46;13.97;;;1.60;;
4049;SDS011;2039;50.894;6.888;2024-02-04T13:39:12;14.90;;;2.20;;
4049;SDS011;2039;50.894;6.888;2024-02-04T13:41:38;14.07;;;2.10;;
4049;SDS011;2039;50.894;6.888;2024-02-04T13:44:04;19.98;;;1.80;;
4049;SDS011;2039;50.894;6.888;2024-02-04T13:46:30;13.95;;;1.73;;
4049;SDS011;2039;50.894;6.888;2024-02-04T13:48:56;15.40;;;2.47;;
4049;SDS011;2039;50.894;6.888;2024-02-04T13:51:21;13.63;;;1.40;;
4049;SDS011;2039;50.894;6.888;2024-02-04T13:53:47;15.73;;;2.10;;
4049;SDS011;2039;50.894;6.888;2024-02-04T13:56:13;14.37;;;2.07;;
4049;SDS011;2039;50.894;6.888;2024-02-04T13:58:38;14.70;;;1.63;;
4049;SDS011;2039;50.894;6.888;2024-02-04T14:01:04;14.20;;;1.80;;
4049;SDS011;2039;50.894;6.888;2024-02-04T14:03:31;13.90;;;1.60;;
4049;SDS011;2039;50.894;6.888;2024-02-04T14:05:56;13.57;;;1.40;;
4049;SDS011;2039;50.894;6.888;2024-02-04T14:08:22;13.70;;;1.53;;
4049;SDS011;2039;50.894;6.888;2024-02-04T14:10:48;14.00;;;1.80;;
4049;SDS011;2039;50.894;6.888;2024-02-04T14:13:13;14.50;;;1.90;;
4049;SDS011;2039;50.894;6.888;2024-02-04T14:15:39;14.70;;;1.75;;
4049;SDS011;2039;50.894;6.888;2024-02-04T14:18:06;15.73;;;2.13;;
4049;SDS011;2039;50.894;6.888;2024-02-04T14:20:32;14.07;;;1.63;;
4049;SDS011;2039;50.894;6.888;2024-02-04T14:22:57;14.33;;;1.40;;
4049;SDS011;2039;50.894;6.888;2024-02-04T14:25:23;14.77;;;1.57;;
4049;SDS011;2039;50.894;6.888;2024-02-04T14:27:49;18.60;;;1.67;;
4049;SDS011;2039;50.894;6.888;2024-02-04T14:30:15;14.15;;;1.50;;
4049;SDS011;2039;50.894;6.888;2024-02-04T14:32:41;15.53;;;1.47;;
4049;SDS011;2039;50.894;6.888;2024-02-04T14:35:07;14.40;;;1.37;;
4049;SDS011;2039;50.894;6.888;2024-02-04T14:37:35;14.05;;;1.15;;
4049;SDS011;2039;50.894;6.888;2024-02-04T14:40:02;14.63;;;1.20;;
4049;SDS011;2039;50.894;6.888;2024-02-04T14:42:29;13.15;;;0.80;;
4049;SDS011;2039;50.894;6.888;2024-02-04T14:44:55;13.10;;;0.83;;
4049;SDS011;2039;50.894;6.888;2024-02-04T14:47:21;13.53;;;1.00;;
4049;SDS011;2039;50.894;6.888;2024-02-04T14:49:46;13.40;;;1.10;;
4049;SDS011;2039;50.894;6.888;2024-02-04T14:52:14;13.35;;;1.00;;
4049;SDS011;2039;50.894;6.888;2024-02-04T14:54:39;13.30;;;0.97;;
4049;SDS011;2039;50.894;6.888;2024-02-04T14:57:05;13.83;;;0.90;;
4049;SDS011;2039;50.894;6.888;2024-02-04T14:59:31;13.43;;;1.00;;
4049;SDS011;2039;50.894;6.888;2024-02-04T15:02:02;20.75;;;1.00;;
4049;SDS011;2039;50.894;6.888;2024-02-04T15:04:31;13.35;;;0.90;;
4049;SDS011;2039;50.894;6.888;2024-02-04T15:06:57;14.20;;;1.33;;